Time;durP1;ratioP1;P1;durP2;ratioP2;P2;SDS_P1;SDS_P2;PMS_P1;PMS_P2;Temp;Humidity;BMP_temperature;BMP_pressure;BME280_temperature;BME280_humidity;BME280_pressure;Samples;Min_cycle;Max_cycle;Signal;HPM_P1;HPM_P2
2023/10/24 00:02:32;;;;;;;15.40;12.40;;;;;;;7.38;96.44;100405.30;109040;275;39626;-69
2023/10/24 00:05:09;;;;;;;13.60;11.30;;;;;;;7.31;96.10;100401.84;109181;275;38390;-70
2023/10/24 00:07:46;;;;;;;14.00;11.80;;;;;;;7.26;95.89;100401.59;109272;275;39209;-66
2023/10/24 00:10:23;;;;;;;15.00;12.40;;;;;;;7.25;95.93;100400.55;109187;275;38764;-66
2023/10/24 00:13:07;;;;;;;15.30;12.40;;;;;;;7.20;95.47;100397.91;109207;275;39053;-67
2023/10/24 00:15:43;;;;;;;14.90;13.00;;;;;;;7.14;95.47;100403.96;109138;275;38621;-66
2023/10/24 00:18:24;;;;;;;17.60;13.10;;;;;;;7.09;95.69;100409.10;109183;275;39668;-67
2023/10/24 00:21:10;;;;;;;15.10;12.40;;;;;;;7.05;95.61;100405.38;109185;275;38190;-66
2023/10/24 00:23:47;;;;;;;15.10;12.00;;;;;;;7.04;95.81;100407.31;109226;275;39638;-69
2023/10/24 00:26:22;;;;;;;14.90;12.20;;;;;;;7.05;96.07;100402.96;109188;275;39082;-69
2023/10/24 00:28:56;;;;;;;16.60;13.10;;;;;;;7.06;96.11;100404.67;109227;275;39617;-69
2023/10/24 00:31:29;;;;;;;17.10;13.50;;;;;;;7.02;95.83;100404.77;109172;275;38791;-70
2023/10/24 00:34:04;;;;;;;13.70;11.80;;;;;;;7.04;96.26;100403.68;109213;275;39365;-67
2023/10/24 00:36:43;;;;;;;18.60;14.00;;;;;;;7.07;96.74;100402.55;109189;275;39108;-67
2023/10/24 00:39:21;;;;;;;16.70;14.80;;;;;;;7.14;97.09;100401.35;109185;275;38946;-69
2023/10/24 00:41:57;;;;;;;27.00;22.90;;;;;;;7.21;97.25;100401.52;109205;275;38449;-70
2023/10/24 00:44:40;;;;;;;45.10;34.40;;;;;;;7.22;96.73;100405.67;109171;268;174607;-66
2023/10/24 00:47:26;;;;;;;32.20;23.60;;;;;;;7.23;96.74;100408.27;109248;275;38284;-66
2023/10/24 00:50:02;;;;;;;37.80;28.80;;;;;;;7.26;97.08;100405.41;109195;275;38588;-71
2023/10/24 00:52:36;;;;;;;38.90;28.50;;;;;;;7.32;97.36;100410.50;109237;275;40029;-69
2023/10/24 00:55:11;;;;;;;22.80;19.40;;;;;;;7.38;97.48;100413.09;109197;275;40525;-69
2023/10/24 00:57:51;;;;;;;22.20;19.30;;;;;;;7.41;97.49;100417.38;109217;275;38626;-67
2023/10/24 01:00:28;;;;;;;23.90;20.10;;;;;;;7.45;97.66;100415.90;109181;275;38820;-67
2023/10/24 01:03:06;;;;;;;24.00;19.10;;;;;;;7.48;97.74;100413.02;109236;275;38543;-69
2023/10/24 01:05:40;;;;;;;21.90;17.10;;;;;;;7.53;97.76;100416.04;109176;275;38330;-69
2023/10/24 01:08:14;;;;;;;22.70;17.50;;;;;;;7.56;97.95;100415.27;109209;275;38684;-69
2023/10/24 01:10:50;;;;;;;22.90;17.50;;;;;;;7.61;98.02;100408.02;109195;275;38341;-70
2023/10/24 01:13:33;;;;;;;21.90;17.70;;;;;;;7.63;97.84;100405.54;109225;275;38290;-67
2023/10/24 01:16:16;;;;;;;23.00;19.10;;;;;;;7.64;97.77;100406.20;109185;275;38237;-66
2023/10/24 01:18:52;;;;;;;23.10;18.10;;;;;;;7.64;97.61;100406.91;109223;275;39397;-71
2023/10/24 01:21:27;;;;;;;27.40;20.80;;;;;;;7.67;97.84;100407.17;109162;275;38851;-69
2023/10/24 01:24:01;;;;;;;35.20;24.70;;;;;;;7.69;97.69;100404.86;109205;275;38714;-70
2023/10/24 01:26:35;;;;;;;30.40;23.00;;;;;;;7.64;97.07;100408.64;109205;275;39911;-70
2023/10/24 01:29:11;;;;;;;31.60;22.00;;;;;;;7.58;96.76;100408.98;108562;275;903543;-69
2023/10/24 01:31:46;;;;;;;25.70;21.20;;;;;;;7.56;97.05;100407.98;109151;275;39219;-70
2023/10/24 01:34:20;;;;;;;25.40;19.70;;;;;;;7.56;97.08;100408.33;109193;275;39468;-69
2023/10/24 01:36:55;;;;;;;24.60;19.60;;;;;;;7.56;97.05;100403.46;109156;275;38439;-69
2023/10/24 01:39:30;;;;;;;25.20;18.30;;;;;;;7.54;97.08;100400.39;109198;275;38818;-68
2023/10/24 01:42:13;;;;;;;22.70;18.10;;;;;;;7.57;97.48;100396.15;109152;275;39103;-69
2023/10/24 01:44:50;;;;;;;24.00;19.00;;;;;;;7.59;97.24;100393.14;109210;275;39435;-66
2023/10/24 01:47:27;;;;;;;24.80;18.40;;;;;;;7.63;97.51;100392.70;109073;275;177966;-66
2023/10/24 01:50:05;;;;;;;19.90;16.30;;;;;;;7.69;97.67;100392.37;109221;275;38458;-66
2023/10/24 01:52:44;;;;;;;21.40;17.00;;;;;;;7.70;97.19;100388.70;109302;275;38256;-67
2023/10/24 01:55:30;;;;;;;22.50;15.60;;;;;;;7.71;97.56;100384.32;109343;275;38595;-66
2023/10/24 01:58:12;;;;;;;19.70;15.40;;;;;;;7.74;97.72;100375.21;109377;275;38781;-67
2023/10/24 02:00:54;;;;;;;20.30;16.00;;;;;;;7.79;97.76;100378.39;109276;275;38431;-68
2023/10/24 02:03:32;;;;;;;17.50;15.30;;;;;;;7.81;97.88;100379.03;109326;275;38799;-71
2023/10/24 02:06:07;;;;;;;20.10;16.00;;;;;;;7.84;98.16;100373.23;109392;275;38485;-70
2023/10/24 02:08:47;;;;;;;20.60;15.10;;;;;;;7.90;98.29;100377.25;109380;275;39632;-66
2023/10/24 02:11:28;;;;;;;21.10;14.50;;;;;;;7.92;98.01;100379.59;109051;275;40681;-66
2023/10/24 02:14:12;;;;;;;19.90;15.60;;;;;;;7.95;97.98;100375.70;109069;275;38473;-66
2023/10/24 02:16:52;;;;;;;17.30;14.70;;;;;;;7.99;98.08;100377.51;109386;275;39622;-66
2023/10/24 02:19:31;;;;;;;17.50;14.70;;;;;;;7.97;97.75;100374.44;109450;275;39007;-69
2023/10/24 02:22:10;;;;;;;17.80;13.70;;;;;;;7.93;97.63;100379.57;109417;275;38319;-66
2023/10/24 02:24:52;;;;;;;15.90;12.60;;;;;;;7.90;97.45;100375.48;109376;275;38481;-66
2023/10/24 02:27:31;;;;;;;15.20;12.10;;;;;;;7.90;97.32;100376.54;109348;275;38231;-66
2023/10/24 02:30:09;;;;;;;12.90;11.40;;;;;;;7.89;97.23;100380.73;109331;275;38247;-71
2023/10/24 02:32:46;;;;;;;14.40;12.80;;;;;;;7.87;97.43;100371.73;109416;275;39387;-67
2023/10/24 02:35:27;;;;;;;13.90;12.50;;;;;;;7.89;97.62;100374.64;109344;275;39134;-66
2023/10/24 02:38:03;;;;;;;13.70;11.70;;;;;;;7.88;97.32;100376.06;109095;275;38530;-70
2023/10/24 02:40:37;;;;;;;14.10;11.10;;;;;;;7.89;97.51;100380.04;109369;275;38244;-69
2023/10/24 02:43:11;;;;;;;13.10;11.70;;;;;;;7.91;97.79;100376.31;109337;275;38306;-69
2023/10/24 02:45:45;;;;;;;19.10;11.90;;;;;;;7.97;98.27;100377.20;109331;275;38294;-69
2023/10/24 02:48:23;;;;;;;17.70;12.10;;;;;;;8.04;98.31;100380.17;108873;275;604757;-67
2023/10/24 02:51:06;;;;;;;14.10;12.00;;;;;;;8.08;98.63;100382.13;109093;275;38211;-67
2023/10/24 02:53:47;;;;;;;14.30;12.00;;;;;;;8.15;99.01;100379.30;109308;275;38224;-67
2023/10/24 02:56:32;;;;;;;15.40;12.40;;;;;;;8.20;98.76;100383.15;109241;275;39428;-66
2023/10/24 02:59:13;;;;;;;15.80;12.30;;;;;;;8.25;98.96;100377.11;109272;275;38150;-69
2023/10/24 03:01:46;;;;;;;14.20;12.60;;;;;;;8.32;99.11;100376.06;109245;275;38653;-69
2023/10/24 03:04:20;;;;;;;15.60;13.10;;;;;;;8.35;98.76;100372.32;109273;275;38787;-70
2023/10/24 03:06:56;;;;;;;18.10;14.50;;;;;;;8.40;98.87;100370.29;109211;275;38472;-69
2023/10/24 03:09:30;;;;;;;19.90;14.70;;;;;;;8.45;98.94;100367.55;109271;275;39772;-69
2023/10/24 03:12:09;;;;;;;23.30;17.50;;;;;;;8.50;98.95;100368.59;109192;275;38880;-70
2023/10/24 03:14:43;;;;;;;30.90;21.20;;;;;;;8.55;99.02;100365.88;109255;275;38679;-70
2023/10/24 03:17:17;;;;;;;30.00;20.40;;;;;;;8.58;99.21;100361.08;109260;275;39194;-70
2023/10/24 03:19:54;;;;;;;30.70;21.30;;;;;;;8.64;99.18;100359.52;109249;275;39050;-67
2023/10/24 03:22:34;;;;;;;30.60;20.60;;;;;;;8.68;99.01;100356.41;109256;275;38380;-67
2023/10/24 03:25:12;;;;;;;32.90;20.70;;;;;;;8.76;99.38;100352.54;109243;275;40211;-70
2023/10/24 03:27:48;;;;;;;28.70;19.10;;;;;;;8.80;99.16;100349.98;109252;275;39810;-67
2023/10/24 03:30:29;;;;;;;28.80;18.20;;;;;;;8.83;99.10;100353.70;109158;275;38461;-66
2023/10/24 03:33:10;;;;;;;23.10;16.70;;;;;;;8.87;99.22;100356.55;109236;275;38227;-70
2023/10/24 03:35:49;;;;;;;18.60;14.50;;;;;;;8.88;98.98;100359.14;109257;275;38809;-70
2023/10/24 03:38:31;;;;;;;21.50;14.30;;;;;;;8.90;99.08;100356.25;109100;275;38479;-67
2023/10/24 03:41:13;;;;;;;19.30;14.60;;;;;;;8.95;99.34;100353.66;109193;275;38284;-67
2023/10/24 03:43:49;;;;;;;17.90;15.50;;;;;;;9.01;99.29;100355.21;109207;275;38744;-67
2023/10/24 03:46:31;;;;;;;18.80;14.10;;;;;;;9.05;99.32;100348.99;109206;275;38730;-66
2023/10/24 03:49:17;;;;;;;14.80;13.30;;;;;;;9.12;99.52;100351.94;109239;275;38876;-67
2023/10/24 03:51:56;;;;;;;14.40;12.40;;;;;;;9.17;99.62;100348.43;109176;275;38227;-66
2023/10/24 03:54:36;;;;;;;16.20;13.40;;;;;;;9.23;99.71;100343.54;109228;275;38324;-66
2023/10/24 03:57:17;;;;;;;16.40;14.40;;;;;;;9.30;99.89;100340.52;109121;275;40137;-66
2023/10/24 04:00:07;;;;;;;18.90;13.60;;;;;;;9.33;99.80;100339.91;109158;267;38279;-66
2023/10/24 04:02:49;;;;;;;17.40;13.40;;;;;;;9.37;99.91;100331.45;109108;275;38311;-67
2023/10/24 04:05:34;;;;;;;15.70;13.50;;;;;;;9.40;99.89;100327.99;109114;275;38948;-67
2023/10/24 04:08:24;;;;;;;15.30;13.80;;;;;;;9.42;99.68;100325.69;109031;275;39192;-68
2023/10/24 04:11:15;;;;;;;18.30;14.50;;;;;;;9.37;99.01;100329.50;109129;275;38666;-66
2023/10/24 04:13:54;;;;;;;20.20;15.00;;;;;;;9.31;98.69;100318.55;109213;275;38166;-70
2023/10/24 04:16:28;;;;;;;16.50;14.50;;;;;;;9.26;98.54;100314.89;109162;275;38231;-69
2023/10/24 04:19:16;;;;;;;16.90;14.30;;;;;;;9.25;98.77;100310.06;109174;275;38868;-67
2023/10/24 04:22:02;;;;;;;21.10;15.20;;;;;;;9.23;98.55;100303.68;109170;275;39651;-67
2023/10/24 04:24:41;;;;;;;17.70;14.60;;;;;;;9.18;98.40;100296.37;109168;275;38611;-69
2023/10/24 04:27:24;;;;;;;19.40;15.40;;;;;;;9.11;98.40;100293.46;109208;275;38739;-70
2023/10/24 04:30:05;;;;;;;20.90;14.70;;;;;;;9.08;98.60;100292.88;109215;275;38960;-70
2023/10/24 04:32:45;;;;;;;15.10;13.60;;;;;;;9.05;98.46;100292.13;109195;275;39666;-69
2023/10/24 04:35:27;;;;;;;16.40;14.70;;;;;;;8.98;98.11;100286.94;109182;275;38132;-66
2023/10/24 04:38:09;;;;;;;16.60;14.20;;;;;;;8.94;97.97;100286.54;109239;275;39637;-67
2023/10/24 04:40:50;;;;;;;17.40;15.10;;;;;;;8.90;97.92;100291.73;109201;275;38182;-66
2023/10/24 04:43:28;;;;;;;16.80;14.00;;;;;;;8.88;97.97;100291.98;109078;275;175587;-70
2023/10/24 04:46:02;;;;;;;16.80;13.50;;;;;;;8.87;97.76;100293.75;109156;275;39421;-69
2023/10/24 04:48:42;;;;;;;16.00;14.30;;;;;;;8.84;97.75;100299.57;109205;275;39693;-67
2023/10/24 04:51:23;;;;;;;18.60;15.50;;;;;;;8.81;97.55;100300.04;109220;275;38826;-67
2023/10/24 04:53:59;;;;;;;16.30;14.60;;;;;;;8.76;97.35;100306.59;109182;275;39929;-70
2023/10/24 04:56:38;;;;;;;15.40;13.70;;;;;;;8.71;97.02;100307.30;108964;275;38677;-70
2023/10/24 04:59:21;;;;;;;17.50;14.10;;;;;;;8.69;97.10;100309.78;109209;275;38707;-66
2023/10/24 05:01:59;;;;;;;17.00;14.20;;;;;;;8.66;96.95;100312.65;109170;275;39375;-66
2023/10/24 05:04:36;;;;;;;16.90;14.80;;;;;;;8.63;96.95;100314.50;109211;275;38444;-70
2023/10/24 05:07:10;;;;;;;19.80;15.30;;;;;;;8.57;96.54;100325.30;109169;275;40118;-70
2023/10/24 05:09:46;;;;;;;15.90;14.10;;;;;;;8.51;96.71;100327.19;109215;275;39673;-70
2023/10/24 05:12:20;;;;;;;16.40;13.20;;;;;;;8.49;96.75;100326.91;109217;275;38164;-70
2023/10/24 05:14:58;;;;;;;18.30;14.00;;;;;;;8.50;97.00;100328.27;109206;275;38206;-66
2023/10/24 05:17:34;;;;;;;16.40;13.80;;;;;;;8.50;96.93;100340.44;109215;275;38772;-68
2023/10/24 05:20:16;;;;;;;16.10;13.60;;;;;;;8.48;97.01;100339.11;109219;275;38440;-70
2023/10/24 05:22:52;;;;;;;14.70;13.00;;;;;;;8.48;97.01;100340.85;109197;275;38781;-66
2023/10/24 05:25:34;;;;;;;15.90;13.00;;;;;;;8.45;96.78;100345.64;109180;275;38637;-67
2023/10/24 05:28:11;;;;;;;16.90;13.90;;;;;;;8.45;96.88;100349.30;109145;275;38379;-69
2023/10/24 05:30:46;;;;;;;18.90;13.50;;;;;;;8.43;96.82;100346.92;109188;275;38175;-69
2023/10/24 05:33:22;;;;;;;15.60;13.20;;;;;;;8.41;97.04;100347.49;109215;275;38464;-67
2023/10/24 05:36:00;;;;;;;19.30;13.40;;;;;;;8.40;97.07;100354.30;109202;275;38770;-67
2023/10/24 05:38:34;;;;;;;15.50;13.30;;;;;;;8.38;96.62;100362.17;109010;275;39537;-70
2023/10/24 05:41:08;;;;;;;17.40;13.60;;;;;;;8.34;96.35;100364.70;109186;275;39205;-69
2023/10/24 05:43:42;;;;;;;17.80;14.10;;;;;;;8.33;96.71;100360.05;109244;275;38990;-69
2023/10/24 05:46:16;;;;;;;18.90;14.50;;;;;;;8.32;96.86;100355.90;109194;275;38441;-69
2023/10/24 05:48:50;;;;;;;20.40;13.20;;;;;;;8.31;97.01;100363.06;109205;275;38434;-69
2023/10/24 05:51:33;;;;;;;17.00;14.10;;;;;;;8.31;97.32;100371.20;109195;275;38447;-69
2023/10/24 05:54:08;;;;;;;17.70;13.40;;;;;;;8.35;97.62;100378.92;109248;275;38946;-69
2023/10/24 05:56:45;;;;;;;22.60;14.60;;;;;;;8.42;97.97;100379.81;109167;275;38865;-69
2023/10/24 05:59:23;;;;;;;21.20;14.40;;;;;;;8.45;97.81;100377.79;109215;275;38991;-67
2023/10/24 06:02:02;;;;;;;17.10;14.30;;;;;;;8.47;97.83;100378.45;109219;275;38506;-67
2023/10/24 06:04:37;;;;;;;19.80;14.10;;;;;;;8.47;97.89;100374.09;109200;275;37234;-70
2023/10/24 06:07:11;;;;;;;18.30;14.50;;;;;;;8.48;97.77;100369.89;109201;275;39638;-70
2023/10/24 06:09:45;;;;;;;20.00;14.50;;;;;;;8.50;97.94;100370.52;109213;275;39663;-71
2023/10/24 06:12:20;;;;;;;20.30;15.50;;;;;;;8.55;98.02;100371.24;109191;275;39641;-69
2023/10/24 06:14:55;;;;;;;25.80;15.50;;;;;;;8.57;97.86;100375.01;109245;275;39718;-67
2023/10/24 06:17:36;;;;;;;24.90;16.30;;;;;;;8.58;97.92;100367.34;109196;275;40080;-67
2023/10/24 06:20:19;;;;;;;25.20;15.80;;;;;;;8.58;98.01;100365.44;108987;275;38495;-66
2023/10/24 06:23:03;;;;;;;29.00;15.00;;;;;;;8.60;98.25;100365.38;109143;275;175138;-67
2023/10/24 06:25:48;;;;;;;27.60;15.10;;;;;;;8.63;98.28;100355.36;109237;275;39550;-67
2023/10/24 06:28:28;;;;;;;28.80;16.20;;;;;;;8.70;98.65;100350.96;109191;275;40075;-70
2023/10/24 06:31:04;;;;;;;28.40;17.30;;;;;;;8.75;98.69;100343.84;109238;275;38853;-71
2023/10/24 06:33:43;;;;;;;;;;;;;;;8.81;99.00;100344.02;109262;275;39403;-67
2023/10/24 06:36:31;;;;;;;26.80;18.40;;;;;;;8.84;99.40;100340.13;109218;275;39611;-67
2023/10/24 06:39:12;;;;;;;26.60;17.20;;;;;;;8.94;99.93;100339.45;109288;275;38766;-69
2023/10/24 06:41:49;;;;;;;26.10;17.40;;;;;;;9.04;99.89;100337.56;109046;275;38221;-70
2023/10/24 06:44:27;;;;;;;36.30;19.10;;;;;;;9.09;99.81;100336.52;109363;275;38142;-70
2023/10/24 06:47:01;;;;;;;34.00;19.40;;;;;;;9.15;99.91;100332.31;109329;275;38282;-71
2023/10/24 06:49:42;;;;;;;30.40;17.30;;;;;;;9.25;100.00;100330.61;109396;275;38170;-68
2023/10/24 06:52:23;;;;;;;26.40;17.80;;;;;;;9.37;100.00;100326.56;109361;275;38158;-67
2023/10/24 06:55:00;;;;;;;26.00;18.70;;;;;;;9.45;100.00;100324.89;109246;275;38307;-70
2023/10/24 06:57:34;;;;;;;27.30;19.90;;;;;;;9.54;100.00;100329.96;109258;275;39957;-68
2023/10/24 07:00:15;;;;;;;28.00;19.70;;;;;;;9.64;100.00;100330.34;109244;275;39901;-69
2023/10/24 07:02:51;;;;;;;30.10;19.70;;;;;;;9.72;100.00;100329.34;109278;275;39902;-67
2023/10/24 07:05:29;;;;;;;30.10;19.00;;;;;;;9.81;100.00;100333.91;109266;275;39617;-66
2023/10/24 07:08:07;;;;;;;26.90;19.50;;;;;;;9.91;100.00;100338.10;109246;275;38851;-67
2023/10/24 07:10:50;;;;;;;34.00;20.50;;;;;;;9.98;100.00;100341.30;109229;275;39592;-66
2023/10/24 07:13:37;;;;;;;31.00;20.00;;;;;;;10.06;100.00;100340.84;109271;275;38559;-71
2023/10/24 07:16:21;;;;;;;27.90;19.80;;;;;;;10.15;100.00;100345.75;109236;275;38160;-70
2023/10/24 07:18:59;;;;;;;28.10;18.60;;;;;;;10.22;100.00;100345.31;109137;275;188760;-70
2023/10/24 07:21:33;;;;;;;26.10;18.40;;;;;;;10.31;100.00;100347.95;109231;275;39445;-70
2023/10/24 07:24:09;;;;;;;30.90;20.00;;;;;;;10.41;100.00;100345.34;109297;275;38133;-71
2023/10/24 07:26:45;;;;;;;28.30;19.90;;;;;;;10.51;100.00;100346.17;109061;275;38572;-70
2023/10/24 07:29:29;;;;;;;28.70;19.40;;;;;;;10.58;100.00;100345.71;109311;275;38765;-67
2023/10/24 07:32:08;;;;;;;27.30;18.80;;;;;;;10.69;100.00;100344.63;109264;275;38319;-66
2023/10/24 07:34:48;;;;;;;27.50;18.60;;;;;;;10.81;100.00;100342.94;109271;275;38458;-67
2023/10/24 07:37:35;;;;;;;29.20;20.40;;;;;;;10.90;100.00;100339.42;109191;275;38596;-66
2023/10/24 07:40:12;;;;;;;26.70;19.10;;;;;;;10.98;100.00;100342.42;109039;275;175055;-69
2023/10/24 07:42:52;;;;;;;29.80;18.80;;;;;;;11.06;100.00;100341.73;109090;275;40781;-67
2023/10/24 07:45:35;;;;;;;26.70;18.90;;;;;;;11.18;100.00;100350.18;109229;275;38337;-65
2023/10/24 07:48:16;;;;;;;27.30;18.30;;;;;;;11.28;100.00;100347.31;109185;275;38348;-67
2023/10/24 07:51:06;;;;;;;28.10;19.60;;;;;;;11.38;100.00;100350.54;109122;275;38153;-67
2023/10/24 07:53:42;;;;;;;34.20;20.10;;;;;;;11.48;99.93;100350.84;109056;275;38148;-70
2023/10/24 07:56:16;;;;;;;29.60;20.00;;;;;;;11.47;99.93;100348.60;109175;275;38393;-70
2023/10/24 07:58:53;;;;;;;28.60;19.10;;;;;;;11.53;100.00;100334.92;109207;275;39092;-69
2023/10/24 08:01:31;;;;;;;29.00;19.70;;;;;;;11.61;99.99;100320.41;109175;275;39341;-69
2023/10/24 08:04:06;;;;;;;32.70;21.30;;;;;;;11.66;99.77;100306.91;109187;275;38228;-66
2023/10/24 08:06:51;;;;;;;31.40;22.40;;;;;;;11.72;99.89;100296.70;109140;275;38308;-66
2023/10/24 08:09:42;;;;;;;37.80;22.10;;;;;;;11.74;99.18;100294.68;109162;275;37958;-67
2023/10/24 08:12:34;;;;;;;31.60;21.70;;;;;;;11.70;98.64;100295.23;109145;275;39235;-67
2023/10/24 08:15:14;;;;;;;31.70;21.40;;;;;;;11.69;98.44;100294.55;109064;275;40480;-70
2023/10/24 08:17:58;;;;;;;30.90;22.20;;;;;;;11.70;98.32;100296.95;109226;275;38873;-66
2023/10/24 08:20:43;;;;;;;35.30;24.10;;;;;;;11.73;98.54;100285.65;109213;275;38981;-66
2023/10/24 08:23:21;;;;;;;35.40;23.90;;;;;;;11.76;98.67;100273.77;109192;275;38460;-69
2023/10/24 08:25:59;;;;;;;34.00;23.20;;;;;;;11.79;98.43;100261.09;109257;275;39327;-69
2023/10/24 08:28:40;;;;;;;30.00;21.80;;;;;;;11.83;98.37;100242.91;109260;275;38351;-66
2023/10/24 08:31:18;;;;;;;34.70;22.90;;;;;;;11.85;98.27;100241.94;109196;275;38140;-66
2023/10/24 08:33:57;;;;;;;39.10;26.00;;;;;;;11.86;97.79;100242.24;109200;275;38362;-71
2023/10/24 08:36:35;;;;;;;36.60;23.90;;;;;;;11.86;97.76;100246.46;109169;275;38158;-67
2023/10/24 08:39:15;;;;;;;38.10;24.10;;;;;;;11.89;97.72;100247.73;109222;275;38251;-67
2023/10/24 08:41:54;;;;;;;35.80;23.20;;;;;;;11.93;97.80;100251.44;109176;275;38221;-67
2023/10/24 08:44:29;;;;;;;35.40;23.30;;;;;;;11.95;97.28;100255.33;109235;275;39008;-70
2023/10/24 08:47:03;;;;;;;36.70;22.90;;;;;;;11.95;97.13;100253.39;109175;275;39633;-69
2023/10/24 08:49:37;;;;;;;37.70;22.40;;;;;;;12.00;97.55;100256.15;109218;275;38463;-67
2023/10/24 08:52:15;;;;;;;33.90;21.80;;;;;;;12.10;98.06;100246.59;109173;275;38694;-67
2023/10/24 08:54:51;;;;;;;30.40;20.30;;;;;;;12.23;98.35;100245.80;109200;275;39398;-70
2023/10/24 08:57:49;;;;;;;34.10;23.10;;;;;;;12.36;97.95;100259.36;109184;275;38282;-70
2023/10/24 09:00:37;;;;;;;34.90;24.60;;;;;;;12.48;98.09;100270.17;109021;275;38472;-66
2023/10/24 09:03:14;;;;;;;34.40;22.10;;;;;;;12.62;98.43;100274.56;109287;275;38756;-71
2023/10/24 09:05:51;;;;;;;30.90;21.50;;;;;;;12.75;98.11;100271.33;109247;275;38496;-70
2023/10/24 09:08:30;;;;;;;31.90;21.30;;;;;;;12.92;98.37;100270.48;109311;275;38460;-67
2023/10/24 09:11:09;;;;;;;28.90;21.60;;;;;;;13.05;97.22;100280.36;109222;275;39433;-66
2023/10/24 09:13:49;;;;;;;31.10;21.90;;;;;;;13.15;97.12;100279.85;109206;275;38422;-67
2023/10/24 09:16:28;;;;;;;28.30;20.30;;;;;;;13.29;96.42;100275.34;109071;275;189445;-68
2023/10/24 09:19:16;;;;;;;28.20;19.70;;;;;;;13.39;95.78;100272.16;109178;275;38354;-70
2023/10/24 09:21:50;;;;;;;30.20;21.30;;;;;;;13.48;93.52;100263.16;109155;275;38319;-71
2023/10/24 09:24:24;;;;;;;28.10;20.70;;;;;;;13.64;94.66;100260.38;109196;275;38289;-69
2023/10/24 09:26:59;;;;;;;29.30;20.50;;;;;;;13.82;94.26;100256.61;109168;275;38706;-70
2023/10/24 09:29:39;;;;;;;32.40;20.50;;;;;;;14.16;94.90;100241.07;109180;275;38250;-66
2023/10/24 09:32:22;;;;;;;25.50;19.20;;;;;;;14.51;92.64;100239.69;108972;275;39332;-66
2023/10/24 09:35:00;;;;;;;25.10;18.40;;;;;;;14.76;92.15;100237.41;109113;275;38464;-66
2023/10/24 09:37:39;;;;;;;27.20;18.40;;;;;;;15.07;91.54;100228.08;109182;275;38450;-67
2023/10/24 09:40:22;;;;;;;25.90;17.80;;;;;;;15.46;90.67;100223.44;109185;275;39672;-66
2023/10/24 09:43:09;;;;;;;21.50;15.90;;;;;;;16.02;90.16;100216.16;109150;275;39372;-70
2023/10/24 09:45:45;;;;;;;20.90;16.00;;;;;;;16.60;87.98;100210.29;109205;275;39676;-70
2023/10/24 09:48:22;;;;;;;21.60;16.80;;;;;;;17.14;85.24;100205.31;109246;275;39927;-70
2023/10/24 09:50:59;;;;;;;19.20;15.50;;;;;;;17.66;84.53;100201.16;109237;275;38254;-70
2023/10/24 09:53:35;;;;;;;20.90;16.80;;;;;;;18.03;81.70;100192.94;109231;275;38913;-67
2023/10/24 09:56:12;;;;;;;20.10;15.00;;;;;;;18.11;77.05;100183.02;109191;275;38163;-66
2023/10/24 09:58:48;;;;;;;19.60;15.70;;;;;;;17.96;76.21;100173.86;109107;275;39491;-70
2023/10/24 10:01:24;;;;;;;20.00;14.90;;;;;;;17.75;75.81;100168.42;109230;275;38139;-70
2023/10/24 10:04:00;;;;;;;18.90;13.00;;;;;;;17.45;75.15;100158.05;109162;275;174700;-70
2023/10/24 10:06:37;;;;;;;19.00;14.00;;;;;;;17.08;73.51;100146.66;109252;275;40406;-70
2023/10/24 10:09:11;;;;;;;19.90;14.60;;;;;;;16.74;75.00;100138.53;109275;275;38468;-70
2023/10/24 10:11:45;;;;;;;23.50;14.90;;;;;;;16.47;75.42;100130.11;109250;275;39616;-71
2023/10/24 10:14:39;;;;;;;18.60;14.30;;;;;;;16.24;76.25;100121.44;109332;275;38959;-70
2023/10/24 10:17:21;;;;;;;19.10;14.40;;;;;;;16.02;76.71;100120.98;109321;275;39480;-72
2023/10/24 10:20:19;;;;;;;21.10;13.20;;;;;;;15.79;76.59;100120.48;109287;275;38816;-70
2023/10/24 10:23:15;;;;;;;16.70;12.30;;;;;;;15.52;76.78;100119.00;109069;275;38280;-70
2023/10/24 10:26:03;;;;;;;14.40;11.50;;;;;;;15.32;76.84;100124.83;109290;275;38474;-71
2023/10/24 10:29:06;;;;;;;15.80;11.40;;;;;;;15.14;76.90;100127.50;109334;275;38586;-70
2023/10/24 10:32:04;;;;;;;14.10;11.60;;;;;;;15.02;77.53;100128.60;109365;275;38482;-71
2023/10/24 10:34:42;;;;;;;16.60;12.20;;;;;;;14.89;77.74;100125.67;109324;275;38341;-71
2023/10/24 10:37:19;;;;;;;16.10;12.40;;;;;;;14.84;78.83;100123.66;109371;275;38631;-71
2023/10/24 10:40:27;;;;;;;14.50;10.40;;;;;;;14.83;79.54;100116.72;109331;275;175226;-66
2023/10/24 10:43:09;;;;;;;12.40;9.50;;;;;;;14.78;78.83;100112.27;109403;275;39803;-67
2023/10/24 10:45:49;;;;;;;10.30;8.40;;;;;;;14.75;78.55;100109.84;108977;275;39702;-69
2023/10/24 10:48:25;;;;;;;11.60;8.20;;;;;;;14.69;78.15;100104.19;108907;275;616275;-70
2023/10/24 10:51:06;;;;;;;13.00;7.80;;;;;;;14.66;78.32;100098.42;109091;275;38433;-70
2023/10/24 10:53:45;;;;;;;10.70;7.30;;;;;;;14.64;78.48;100100.81;109335;275;38221;-71
2023/10/24 10:56:24;;;;;;;10.50;7.60;;;;;;;14.63;78.18;100094.86;109377;275;39591;-71
2023/10/24 10:59:41;;;;;;;9.90;6.80;;;;;;;14.62;78.38;100095.32;109390;275;38745;-67
2023/10/24 11:02:36;;;;;;;9.30;6.90;;;;;;;14.59;77.89;100091.11;108495;275;897308;-66
2023/10/24 11:05:58;;;;;;;10.40;6.90;;;;;;;14.60;78.52;100087.38;109235;275;39636;-66
2023/10/24 11:08:33;;;;;;;10.60;7.00;;;;;;;14.61;77.71;100086.08;109246;275;39519;-70
2023/10/24 11:11:11;;;;;;;9.80;7.00;;;;;;;14.61;78.18;100084.65;109205;275;38739;-70
2023/10/24 11:13:53;;;;;;;10.90;7.50;;;;;;;14.62;78.48;100078.26;109233;275;38542;-67
2023/10/24 11:16:38;;;;;;;12.00;7.70;;;;;;;14.64;78.40;100076.77;109226;275;38466;-67
2023/10/24 11:19:20;;;;;;;9.40;7.20;;;;;;;14.65;78.44;100077.39;109278;275;38779;-66
2023/10/24 11:21:59;;;;;;;10.60;7.00;;;;;;;14.67;78.37;100081.46;109264;275;39622;-66
2023/10/24 11:24:42;;;;;;;11.40;6.80;;;;;;;14.69;77.91;100082.23;109302;275;38231;-66
2023/10/24 11:27:24;;;;;;;9.30;7.10;;;;;;;14.71;78.42;100077.56;109250;275;38867;-69
2023/10/24 11:29:59;;;;;;;11.50;6.90;;;;;;;14.74;78.63;100066.52;109269;275;38595;-70
2023/10/24 11:32:38;;;;;;;11.20;7.80;;;;;;;14.73;77.90;100067.09;109265;275;38578;-70
2023/10/24 11:35:13;;;;;;;10.60;6.80;;;;;;;14.72;78.15;100067.67;109258;275;38537;-67
2023/10/24 11:37:47;;;;;;;10.40;6.40;;;;;;;14.73;78.44;100062.73;109266;275;38583;-70
2023/10/24 11:40:21;;;;;;;11.20;6.30;;;;;;;14.76;78.85;100066.19;109221;275;39392;-70
2023/10/24 11:43:04;;;;;;;8.90;6.10;;;;;;;14.81;78.55;100065.72;109274;275;38450;-67
2023/10/24 11:45:41;;;;;;;9.50;6.60;;;;;;;14.83;78.21;100063.86;109239;275;38444;-66
2023/10/24 11:48:19;;;;;;;9.20;6.20;;;;;;;14.81;77.61;100065.40;109070;275;175225;-67
2023/10/24 11:51:10;;;;;;;12.40;6.20;;;;;;;14.79;78.08;100070.95;109191;275;39334;-68
2023/10/24 11:53:48;;;;;;;10.50;6.00;;;;;;;14.78;78.37;100072.60;109145;275;38836;-70
2023/10/24 11:56:22;;;;;;;10.10;6.00;;;;;;;14.79;78.25;100073.80;109143;275;38267;-70
2023/10/24 11:58:57;;;;;;;8.00;6.10;;;;;;;14.81;77.88;100067.68;109214;275;38263;-71
2023/10/24 12:01:33;;;;;;;8.50;5.90;;;;;;;14.81;77.56;100055.58;109174;275;38936;-70
2023/10/24 12:04:07;;;;;;;10.20;5.50;;;;;;;14.78;77.30;100043.65;109222;275;39893;-67
2023/10/24 12:06:46;;;;;;;10.90;5.70;;;;;;;14.76;77.61;100035.69;109061;275;38649;-67
2023/10/24 12:09:21;;;;;;;8.30;5.00;;;;;;;14.75;77.71;100028.73;109214;275;40166;-66
2023/10/24 12:12:00;;;;;;;10.10;5.70;;;;;;;14.73;77.74;100017.55;109197;275;39558;-66